createdAt,value
2016-07-12T00:00:30.121Z,1001.42
2016-07-12T00:01:30.101Z,1001.44
2016-07-12T00:02:30.087Z,1001.38
2016-07-12T00:03:30.065Z,1001.45
2016-07-12T00:04:30.046Z,1001.47
2016-07-12T00:05:30.027Z,1001.44
2016-07-12T00:06:30.009Z,1001.42
2016-07-12T00:07:29.993Z,1001.41
2016-07-12T00:08:29.969Z,1001.35
2016-07-12T00:09:29.951Z,1001.37
2016-07-12T00:10:29.934Z,1001.34
2016-07-12T00:11:29.913Z,1001.31
2016-07-12T00:12:29.894Z,1001.31
2016-07-12T00:13:29.875Z,1001.27
2016-07-12T00:14:29.856Z,1001.26
2016-07-12T00:15:29.842Z,1001.24
2016-07-12T00:16:29.820Z,1001.24
2016-07-12T00:17:29.799Z,1001.21
2016-07-12T00:18:29.779Z,1001.22
2016-07-12T00:19:29.761Z,1001.17
2016-07-12T00:20:29.741Z,1001.17
2016-07-12T00:21:29.722Z,1001.15
2016-07-12T00:22:29.702Z,1001.18
2016-07-12T00:23:29.685Z,1001.18
2016-07-12T00:24:29.665Z,1001.2
2016-07-12T00:25:29.644Z,1001.18
2016-07-12T00:26:29.627Z,1001.26
2016-07-12T00:27:29.608Z,1001.22
2016-07-12T00:28:29.589Z,1001.25
2016-07-12T00:29:29.568Z,1001.21
2016-07-12T00:30:29.549Z,1001.2
2016-07-12T00:31:29.529Z,1001.23
2016-07-12T00:32:29.512Z,1001.21
2016-07-12T00:33:29.492Z,1001.22
2016-07-12T00:34:29.472Z,1001.23
2016-07-12T00:35:29.455Z,1001.22
2016-07-12T00:36:29.434Z,1001.23
2016-07-12T00:37:29.415Z,1001.16
2016-07-12T00:38:29.395Z,1001.22
2016-07-12T00:39:29.377Z,1001.21
2016-07-12T00:40:29.357Z,1001.26
2016-07-12T00:41:29.337Z,1001.2
2016-07-12T00:42:29.318Z,1001.23
2016-07-12T00:43:29.298Z,1001.2
2016-07-12T00:44:29.279Z,1001.21
2016-07-12T00:45:29.261Z,1001.26
2016-07-12T00:46:29.240Z,1001.24
2016-07-12T00:47:29.220Z,1001.28
2016-07-12T00:48:29.203Z,1001.24
2016-07-12T00:49:29.183Z,1001.23
2016-07-12T00:50:29.163Z,1001.26
2016-07-12T00:51:29.143Z,1001.3
2016-07-12T00:52:29.124Z,1001.28
2016-07-12T00:53:29.104Z,1001.29
2016-07-12T00:54:29.086Z,1001.26
2016-07-12T00:55:29.067Z,1001.25
2016-07-12T00:56:29.046Z,1001.23
2016-07-12T00:57:29.026Z,1001.21
2016-07-12T00:58:29.006Z,1001.22
2016-07-12T00:59:28.987Z,1001.25
2016-07-12T01:00:28.967Z,1001.24
2016-07-12T01:01:28.949Z,1001.23
2016-07-12T01:02:28.929Z,1001.22
2016-07-12T01:03:28.909Z,1001.21
2016-07-12T01:04:28.891Z,1001.25
2016-07-12T01:05:28.871Z,1001.24
2016-07-12T01:06:28.851Z,1001.21
2016-07-12T01:07:28.833Z,1001.22
2016-07-12T01:08:28.812Z,1001.18
2016-07-12T01:09:28.792Z,1001.21
2016-07-12T01:10:28.773Z,1001.21
2016-07-12T01:11:28.754Z,1001.2
2016-07-12T01:12:28.734Z,1001.16
2016-07-12T01:13:28.713Z,1001.15
2016-07-12T01:14:28.695Z,1001.17
2016-07-12T01:15:28.675Z,1001.19
2016-07-12T01:16:28.656Z,1001.18
2016-07-12T01:17:28.637Z,1001.19
2016-07-12T01:18:28.618Z,1001.25
2016-07-12T01:19:28.596Z,1001.21
2016-07-12T01:20:28.577Z,1001.23
2016-07-12T01:21:28.559Z,1001.18
2016-07-12T01:22:28.538Z,1001.24
2016-07-12T01:23:28.521Z,1001.23
2016-07-12T01:24:28.499Z,1001.24
2016-07-12T01:25:28.481Z,1001.24
2016-07-12T01:26:28.461Z,1001.25
2016-07-12T01:27:28.443Z,1001.25
2016-07-12T01:28:28.423Z,1001.24
2016-07-12T01:29:28.404Z,1001.21
2016-07-12T01:30:28.384Z,1001.2
2016-07-12T01:31:28.364Z,1001.19
2016-07-12T01:32:28.344Z,1001.22
2016-07-12T01:33:28.324Z,1001.21
2016-07-12T01:34:28.306Z,1001.19
2016-07-12T01:35:28.286Z,1001.2
2016-07-12T01:36:28.265Z,1001.21
2016-07-12T01:37:28.248Z,1001.19
2016-07-12T01:38:28.227Z,1001.2
2016-07-12T01:39:28.209Z,1001.18
2016-07-12T01:40:28.188Z,1001.15
2016-07-12T01:41:28.169Z,1001.16
2016-07-12T01:42:28.149Z,1001.18
2016-07-12T01:43:28.129Z,1001.17
2016-07-12T01:44:28.111Z,1001.16
2016-07-12T01:45:28.092Z,1001.19
2016-07-12T01:46:28.072Z,1001.21
2016-07-12T01:47:28.053Z,1001.18
2016-07-12T01:48:28.042Z,1001.23
2016-07-12T01:49:28.013Z,1001.18
2016-07-12T01:50:27.994Z,1001.17
2016-07-12T01:51:27.974Z,1001.21
2016-07-12T01:52:27.955Z,1001.18
2016-07-12T01:53:27.935Z,1001.22
2016-07-12T01:54:27.916Z,1001.25
2016-07-12T01:55:27.897Z,1001.24
2016-07-12T01:56:27.876Z,1001.23
2016-07-12T01:57:27.857Z,1001.21
2016-07-12T01:58:27.838Z,1001.19
2016-07-12T01:59:27.818Z,1001.19
2016-07-12T02:00:27.799Z,1001.24
2016-07-12T02:01:27.778Z,1001.22
2016-07-12T02:02:27.765Z,1001.23
2016-07-12T02:03:27.739Z,1001.21
2016-07-12T02:04:27.721Z,1001.18
2016-07-12T02:05:27.702Z,1001.24
2016-07-12T02:06:27.682Z,1001.22
2016-07-12T02:07:27.663Z,1001.21
2016-07-12T02:08:27.644Z,1001.19
2016-07-12T02:09:27.623Z,1001.23
2016-07-12T02:10:27.603Z,1001.16
2016-07-12T02:11:27.583Z,1001.22
2016-07-12T02:12:27.565Z,1001.18
2016-07-12T02:13:27.545Z,1001.21
2016-07-12T02:14:27.525Z,1001.23
2016-07-12T02:15:27.505Z,1001.22
2016-07-12T02:16:27.486Z,1001.23
2016-07-12T02:17:27.467Z,1001.16
2016-07-12T02:18:27.447Z,1001.17
2016-07-12T02:19:27.427Z,1001.18
2016-07-12T02:20:27.407Z,1001.19
2016-07-12T02:21:27.388Z,1001.16
2016-07-12T02:22:27.369Z,1001.18
2016-07-12T02:23:27.349Z,1001.16
2016-07-12T02:24:27.330Z,1001.17
2016-07-12T02:25:27.311Z,1001.2
2016-07-12T02:26:27.289Z,1001.16
2016-07-12T02:27:27.271Z,1001.25
2016-07-12T02:28:27.251Z,1001.24
2016-07-12T02:29:27.231Z,1001.25
2016-07-12T02:30:27.212Z,1001.22
2016-07-12T02:31:27.192Z,1001.28
2016-07-12T02:32:27.173Z,1001.32
2016-07-12T02:33:27.152Z,1001.31
2016-07-12T02:34:27.133Z,1001.31
2016-07-12T02:35:27.112Z,1001.28
2016-07-12T02:36:27.094Z,1001.32
2016-07-12T02:37:27.075Z,1001.24
2016-07-12T02:38:27.053Z,1001.29
2016-07-12T02:39:27.036Z,1001.19
2016-07-12T02:40:27.016Z,1001.26
2016-07-12T02:41:26.996Z,1001.25
2016-07-12T02:42:26.975Z,1001.27
2016-07-12T02:43:26.955Z,1001.29
2016-07-12T02:44:26.936Z,1001.3
2016-07-12T02:45:26.916Z,1001.32
2016-07-12T02:46:26.896Z,1001.32
2016-07-12T02:47:26.876Z,1001.33
2016-07-12T02:48:26.855Z,1001.31
2016-07-12T02:49:26.835Z,1001.34
2016-07-12T02:50:26.817Z,1001.35
2016-07-12T02:51:26.798Z,1001.37
2016-07-12T02:52:26.777Z,1001.39
2016-07-12T02:53:26.757Z,1001.36
2016-07-12T02:54:26.737Z,1001.37
2016-07-12T02:55:26.716Z,1001.38
2016-07-12T02:56:26.698Z,1001.41
2016-07-12T02:57:26.679Z,1001.43
2016-07-12T02:58:26.664Z,1001.46
2016-07-12T02:59:26.637Z,1001.49
2016-07-12T03:00:26.618Z,1001.53
2016-07-12T03:01:26.599Z,1001.56
2016-07-12T03:02:26.580Z,1001.54
2016-07-12T03:03:26.558Z,1001.5
2016-07-12T03:04:26.538Z,1001.55
2016-07-12T03:05:26.520Z,1001.54
2016-07-12T03:06:26.498Z,1001.5
2016-07-12T03:07:26.479Z,1001.53
2016-07-12T03:08:26.459Z,1001.56
2016-07-12T03:09:26.438Z,1001.57
2016-07-12T03:10:26.420Z,1001.52
2016-07-12T03:11:26.399Z,1001.57
2016-07-12T03:12:26.378Z,1001.54
2016-07-12T03:13:26.359Z,1001.57
2016-07-12T03:14:26.341Z,1001.53
2016-07-12T03:15:26.321Z,1001.57
2016-07-12T03:16:26.306Z,1001.59
2016-07-12T03:17:26.280Z,1001.56
2016-07-12T03:18:26.260Z,1001.61
2016-07-12T03:19:26.241Z,1001.59
2016-07-12T03:20:26.222Z,1001.63
2016-07-12T03:21:26.199Z,1001.62
2016-07-12T03:22:26.179Z,1001.66
2016-07-12T03:23:26.161Z,1001.58
2016-07-12T03:24:26.140Z,1001.61
2016-07-12T03:25:26.120Z,1001.6
2016-07-12T03:26:26.101Z,1001.57
2016-07-12T03:27:26.081Z,1001.56
2016-07-12T03:28:26.059Z,1001.57
2016-07-12T03:29:26.040Z,1001.58
2016-07-12T03:30:26.020Z,1001.55
2016-07-12T03:31:26.001Z,1001.51
2016-07-12T03:32:25.980Z,1001.54
2016-07-12T03:33:25.960Z,1001.6
2016-07-12T03:34:25.939Z,1001.58
2016-07-12T03:35:25.919Z,1001.56
2016-07-12T03:36:25.899Z,1001.45
2016-07-12T03:37:25.881Z,1001.57
2016-07-12T03:38:25.861Z,1001.57
2016-07-12T03:39:25.839Z,1001.57
2016-07-12T03:40:25.830Z,1001.58
2016-07-12T03:41:25.801Z,1001.53
2016-07-12T03:42:25.779Z,1001.56
2016-07-12T03:43:25.759Z,1001.54
2016-07-12T03:44:25.740Z,1001.54
2016-07-12T03:45:25.720Z,1001.54
2016-07-12T03:46:25.697Z,1001.59
2016-07-12T03:47:25.678Z,1001.63
2016-07-12T03:48:25.660Z,1001.63
2016-07-12T03:49:25.640Z,1001.62
2016-07-12T03:50:25.620Z,1001.61
2016-07-12T03:51:25.599Z,1001.6
2016-07-12T03:52:25.579Z,1001.6
2016-07-12T03:53:25.559Z,1001.63
2016-07-12T03:54:25.539Z,1001.62
2016-07-12T03:55:25.518Z,1001.62
2016-07-12T03:56:25.498Z,1001.67
2016-07-12T03:57:25.482Z,1001.55
2016-07-12T03:58:25.459Z,1001.65
2016-07-12T03:59:25.438Z,1001.63
2016-07-12T04:00:25.420Z,1001.63
2016-07-12T04:01:25.400Z,1001.64
2016-07-12T04:02:25.380Z,1001.64
2016-07-12T04:03:25.361Z,1001.68
2016-07-12T04:04:25.340Z,1001.66
2016-07-12T04:05:25.320Z,1001.64
2016-07-12T04:06:25.299Z,1001.72
2016-07-12T04:07:25.293Z,1001.67
2016-07-12T04:08:25.260Z,1001.61
2016-07-12T04:09:25.240Z,1001.65
2016-07-12T04:10:25.221Z,1001.66
2016-07-12T04:11:25.203Z,1001.64
2016-07-12T04:12:25.182Z,1001.6
2016-07-12T04:13:25.161Z,1001.6
2016-07-12T04:14:25.141Z,1001.6
2016-07-12T04:15:25.123Z,1001.61
2016-07-12T04:16:25.102Z,1001.65
2016-07-12T04:17:25.083Z,1001.63
2016-07-12T04:18:25.064Z,1001.64
2016-07-12T04:19:25.043Z,1001.64
2016-07-12T04:20:25.023Z,1001.64
2016-07-12T04:21:25.003Z,1001.61
2016-07-12T04:22:24.985Z,1001.63
2016-07-12T04:23:24.964Z,1001.6
2016-07-12T04:24:24.945Z,1001.6
2016-07-12T04:25:24.926Z,1001.7
2016-07-12T04:26:24.907Z,1001.7
2016-07-12T04:27:24.887Z,1001.7
2016-07-12T04:28:24.868Z,1001.72
2016-07-12T04:29:24.849Z,1001.72
2016-07-12T04:30:24.828Z,1001.69
2016-07-12T04:31:24.809Z,1001.69
2016-07-12T04:32:24.791Z,1001.63
2016-07-12T04:33:24.771Z,1001.65
2016-07-12T04:34:24.751Z,1001.66
2016-07-12T04:35:24.731Z,1001.69
2016-07-12T04:36:24.714Z,1001.69
2016-07-12T04:37:24.694Z,1001.72
2016-07-12T04:38:24.675Z,1001.7
2016-07-12T04:39:24.655Z,1001.74
2016-07-12T04:40:24.637Z,1001.7
2016-07-12T04:41:24.618Z,1001.7
2016-07-12T04:42:24.597Z,1001.73
2016-07-12T04:43:24.580Z,1001.74
2016-07-12T04:44:24.560Z,1001.72
2016-07-12T04:45:24.540Z,1001.71
2016-07-12T04:46:24.522Z,1001.76
2016-07-12T04:47:24.503Z,1001.79
2016-07-12T04:48:24.483Z,1001.79
2016-07-12T04:49:24.465Z,1001.78
2016-07-12T04:50:24.446Z,1001.81
2016-07-12T04:51:24.427Z,1001.81
2016-07-12T04:52:24.408Z,1001.83
2016-07-12T04:53:24.388Z,1001.83
2016-07-12T04:54:24.371Z,1001.82
2016-07-12T04:55:24.353Z,1001.83
2016-07-12T04:56:24.331Z,1001.85
2016-07-12T04:57:24.314Z,1001.87
2016-07-12T04:58:24.295Z,1001.83
2016-07-12T04:59:24.274Z,1001.88
2016-07-12T05:00:24.256Z,1001.81
2016-07-12T05:01:24.237Z,1001.85
2016-07-12T05:02:24.219Z,1001.91
2016-07-12T05:03:24.199Z,1001.87
2016-07-12T05:04:24.180Z,1001.88
2016-07-12T05:05:24.163Z,1001.97
2016-07-12T05:06:24.144Z,1001.93
2016-07-12T05:07:24.124Z,1001.95
2016-07-12T05:08:24.105Z,1001.96
2016-07-12T05:09:24.087Z,1001.95
2016-07-12T05:10:24.067Z,1001.96
2016-07-12T05:11:24.049Z,1001.99
2016-07-12T05:12:24.030Z,1001.94
2016-07-12T05:13:24.012Z,1001.96
2016-07-12T05:14:23.992Z,1001.99
2016-07-12T05:15:23.974Z,1001.98
2016-07-12T05:16:23.955Z,1001.98
2016-07-12T05:17:23.937Z,1002.03
2016-07-12T05:18:23.916Z,1001.97
2016-07-12T05:19:23.898Z,1001.93
2016-07-12T05:20:23.880Z,1001.94
2016-07-12T05:21:23.861Z,1002.02
2016-07-12T05:22:23.842Z,1001.96
2016-07-12T05:23:23.823Z,1002
2016-07-12T05:24:23.805Z,1002.05
2016-07-12T05:25:23.785Z,1002.08
2016-07-12T05:26:23.768Z,1002.12
2016-07-12T05:27:23.748Z,1002.09
2016-07-12T05:28:23.731Z,1002.16
2016-07-12T05:29:23.712Z,1002.21
2016-07-12T05:30:23.692Z,1002.08
2016-07-12T05:31:23.674Z,1002.2
2016-07-12T05:32:23.656Z,1002.19
2016-07-12T05:33:23.636Z,1002.22
2016-07-12T05:34:23.620Z,1002.22
2016-07-12T05:35:23.601Z,1002.27
2016-07-12T05:36:23.581Z,1002.22
2016-07-12T05:37:23.563Z,1002.24
2016-07-12T05:38:23.545Z,1002.29
2016-07-12T05:39:23.526Z,1002.27
2016-07-12T05:40:23.508Z,1002.28
2016-07-12T05:41:23.490Z,1002.26
2016-07-12T05:42:23.471Z,1002.24
2016-07-12T05:43:23.452Z,1002.22
2016-07-12T05:44:23.435Z,1002.24
2016-07-12T05:45:23.421Z,1002.2
2016-07-12T05:46:23.400Z,1002.27
2016-07-12T05:47:23.380Z,1002.27
2016-07-12T05:48:23.364Z,1002.28
2016-07-12T05:49:23.344Z,1002.3
2016-07-12T05:50:23.327Z,1002.29
2016-07-12T05:51:23.310Z,1002.32
2016-07-12T05:52:23.292Z,1002.34
2016-07-12T05:53:23.274Z,1002.33
2016-07-12T05:54:23.255Z,1002.29
2016-07-12T05:55:23.239Z,1002.29
2016-07-12T05:56:23.221Z,1002.33
2016-07-12T05:57:23.204Z,1002.3
2016-07-12T05:58:23.185Z,1002.28
2016-07-12T05:59:23.168Z,1002.27
2016-07-12T06:00:23.152Z,1002.29
2016-07-12T06:01:23.134Z,1002.26
2016-07-12T06:02:23.116Z,1002.25
2016-07-12T06:03:23.100Z,1002.22
2016-07-12T06:04:23.084Z,1002.22
2016-07-12T06:05:23.065Z,1002.27
2016-07-12T06:06:23.050Z,1002.21
2016-07-12T06:07:23.032Z,1002.23
2016-07-12T06:08:23.015Z,1002.26
2016-07-12T06:09:22.999Z,1002.22
2016-07-12T06:10:22.983Z,1002.22
2016-07-12T06:11:22.966Z,1002.2
2016-07-12T06:12:22.949Z,1002.22
2016-07-12T06:13:22.933Z,1002.16
2016-07-12T06:14:22.916Z,1002.25
2016-07-12T06:15:22.901Z,1002.15
2016-07-12T06:16:22.883Z,1002.14
2016-07-12T06:17:22.867Z,1002.15
2016-07-12T06:18:22.852Z,1002.08
2016-07-12T06:19:22.837Z,1002.12
2016-07-12T06:20:22.821Z,1002.13
2016-07-12T06:21:22.808Z,1002.08
2016-07-12T06:22:22.787Z,1002.07
2016-07-12T06:23:22.775Z,1002.04
2016-07-12T06:24:22.759Z,1002.02
2016-07-12T06:25:22.744Z,1002.04
2016-07-12T06:26:22.729Z,1002.07
2016-07-12T06:27:22.713Z,1002.06
2016-07-12T06:28:22.698Z,1002.1
2016-07-12T06:29:22.684Z,1002.08
2016-07-12T06:30:22.669Z,1002.15
2016-07-12T06:31:22.653Z,1002.06
2016-07-12T06:32:22.639Z,1002.1
2016-07-12T06:33:22.625Z,1002.12
2016-07-12T06:34:22.609Z,1002.14
2016-07-12T06:35:22.608Z,1002.14
2016-07-12T06:36:22.586Z,1002.12
2016-07-12T06:37:22.567Z,1002.07
2016-07-12T06:38:22.550Z,1002.09
2016-07-12T06:39:22.538Z,1002.14
2016-07-12T06:40:22.525Z,1002.15
2016-07-12T06:41:22.510Z,1002.1
2016-07-12T06:42:22.495Z,1002.11
2016-07-12T06:43:22.483Z,1002.16
2016-07-12T06:44:22.470Z,1002.14
2016-07-12T06:45:22.455Z,1002.12
2016-07-12T06:46:22.441Z,1002.18
2016-07-12T06:47:22.428Z,1002.17
2016-07-12T06:48:22.416Z,1002.18
2016-07-12T06:49:22.401Z,1002.29
2016-07-12T06:50:22.389Z,1002.2
2016-07-12T06:51:22.376Z,1002.13
2016-07-12T06:52:22.363Z,1002.16
2016-07-12T06:53:22.350Z,1002.13
2016-07-12T06:54:22.337Z,1002.13
2016-07-12T06:55:22.325Z,1002.2
2016-07-12T06:56:22.311Z,1002.14
2016-07-12T06:57:22.298Z,1002.13
2016-07-12T06:58:22.286Z,1002.13
2016-07-12T06:59:22.275Z,1002.12
2016-07-12T07:00:22.262Z,1002.07
2016-07-12T07:01:22.250Z,1002.08
2016-07-12T07:02:22.238Z,1002.1
2016-07-12T07:03:22.226Z,1002.04
2016-07-12T07:04:22.212Z,1002.09
2016-07-12T07:05:22.201Z,1002.08
2016-07-12T07:06:22.195Z,1002.17
2016-07-12T07:07:22.176Z,1002.18
2016-07-12T07:08:22.164Z,1002.03
2016-07-12T07:09:22.153Z,1002.15
2016-07-12T07:10:22.141Z,1002.15
2016-07-12T07:11:22.130Z,1002.22
2016-07-12T07:12:22.119Z,1002.19
2016-07-12T07:13:22.107Z,1002.15
2016-07-12T07:14:22.095Z,1002.15
2016-07-12T07:15:22.082Z,1002.16
2016-07-12T07:16:22.072Z,1002.18
2016-07-12T07:17:22.061Z,1002.2
2016-07-12T07:18:22.047Z,1002.22
2016-07-12T07:19:22.036Z,1002.1
2016-07-12T07:20:22.025Z,1002.2
2016-07-12T07:21:22.015Z,1002.15
2016-07-12T07:22:22.002Z,1002.18
2016-07-12T07:23:21.989Z,1002.19
2016-07-12T07:24:21.979Z,1002.22
2016-07-12T07:25:21.968Z,1002.25
2016-07-12T07:26:21.955Z,1002.22
2016-07-12T07:27:21.943Z,1002.22
2016-07-12T07:28:21.933Z,1002.2
2016-07-12T07:29:21.918Z,1002.25
2016-07-12T07:30:21.907Z,1002.23
2016-07-12T07:31:21.897Z,1002.21
2016-07-12T07:32:21.884Z,1002.23
2016-07-12T07:33:21.871Z,1002.34
2016-07-12T07:34:21.860Z,1002.24
2016-07-12T07:35:21.849Z,1002.21
2016-07-12T07:36:21.836Z,1002.22
2016-07-12T07:37:21.834Z,1002.22
2016-07-12T07:38:21.813Z,1002.15
2016-07-12T07:39:21.801Z,1002.25
2016-07-12T07:40:21.788Z,1002.23
2016-07-12T07:41:21.780Z,1002.26
2016-07-12T07:42:21.765Z,1002.24
2016-07-12T07:43:21.753Z,1002.22
2016-07-12T07:44:21.742Z,1002.23
2016-07-12T07:45:21.730Z,1002.22
2016-07-12T07:46:21.719Z,1002.25
2016-07-12T07:47:21.710Z,1002.26
2016-07-12T07:48:21.696Z,1002.19
2016-07-12T07:49:21.687Z,1002.21
2016-07-12T07:50:21.675Z,1002.19
2016-07-12T07:51:21.665Z,1002.23
2016-07-12T07:52:21.654Z,1002.2
2016-07-12T07:53:21.644Z,1002.18
2016-07-12T07:54:21.635Z,1002.27
2016-07-12T07:55:21.623Z,1002.21
2016-07-12T07:56:21.612Z,1002.28
2016-07-12T07:57:21.603Z,1002.21
2016-07-12T07:58:21.593Z,1002.2
2016-07-12T07:59:21.584Z,1002.09
2016-07-12T08:00:21.575Z,1002.14
2016-07-12T08:01:21.569Z,1002.19
2016-07-12T08:02:21.555Z,1002.2
2016-07-12T08:03:21.546Z,1002.23
2016-07-12T08:04:21.537Z,1002.19
2016-07-12T08:05:21.578Z,1002.17
2016-07-12T08:06:21.518Z,1002.07
2016-07-12T08:07:21.509Z,1002.07
2016-07-12T08:08:21.501Z,1002.14
2016-07-12T08:09:21.491Z,1002.03
2016-07-12T08:10:21.483Z,1002.13
2016-07-12T08:11:21.475Z,1002.06
2016-07-12T08:12:21.465Z,1002
2016-07-12T08:13:21.456Z,1002.09
2016-07-12T08:14:21.446Z,1001.95
2016-07-12T08:15:21.440Z,1002.04
2016-07-12T08:16:21.430Z,1001.96
2016-07-12T08:17:21.419Z,1002
2016-07-12T08:18:21.479Z,1001.92
2016-07-12T08:19:21.402Z,1001.9
2016-07-12T08:20:21.393Z,1001.92
2016-07-12T08:21:21.464Z,1002.1
2016-07-12T08:22:21.377Z,1001.94
2016-07-12T08:23:21.369Z,1001.93
2016-07-12T08:24:21.360Z,1001.97
2016-07-12T08:25:21.350Z,1001.96
2016-07-12T08:26:21.344Z,1002.15
2016-07-12T08:27:21.337Z,1002.07
2016-07-12T08:28:21.330Z,1002.04
2016-07-12T08:29:21.321Z,1002
2016-07-12T08:30:21.314Z,1001.97
2016-07-12T08:31:21.306Z,1001.94
2016-07-12T08:32:21.300Z,1001.99
2016-07-12T08:33:21.292Z,1002.04
2016-07-12T08:34:21.285Z,1001.96
2016-07-12T08:35:21.277Z,1001.99
2016-07-12T08:36:21.269Z,1002.02
2016-07-12T08:37:21.262Z,1002.03
2016-07-12T08:38:21.254Z,1002
2016-07-12T08:39:21.245Z,1002
2016-07-12T08:40:21.237Z,1001.98
2016-07-12T08:41:21.228Z,1002
2016-07-12T08:42:21.219Z,1001.98
2016-07-12T08:43:21.269Z,1001.96
2016-07-12T08:44:21.201Z,1001.98
2016-07-12T08:45:21.193Z,1001.99
2016-07-12T08:46:21.184Z,1002.03
2016-07-12T08:47:21.181Z,1002.02
2016-07-12T08:48:21.169Z,1001.99
2016-07-12T08:49:21.208Z,1001.97
2016-07-12T08:50:21.161Z,1001.92
2016-07-12T08:51:21.142Z,1001.97
2016-07-12T08:52:21.135Z,1002
2016-07-12T08:53:21.127Z,1001.94
2016-07-12T08:54:21.119Z,1001.91
2016-07-12T08:55:21.113Z,1001.98
2016-07-12T08:56:21.106Z,1001.9
2016-07-12T08:57:21.099Z,1002.01
2016-07-12T08:58:21.092Z,1001.93
2016-07-12T08:59:21.086Z,1001.97
2016-07-12T09:00:21.078Z,1002.04
2016-07-12T09:01:21.072Z,1002.05
2016-07-12T09:02:21.067Z,1002.08
2016-07-12T09:03:21.059Z,1002
2016-07-12T09:04:21.051Z,1001.99
2016-07-12T09:05:21.046Z,1002.05
2016-07-12T09:06:21.038Z,1002.05
2016-07-12T09:07:21.042Z,1002.02
2016-07-12T09:08:21.024Z,1002.09
2016-07-12T09:09:21.017Z,1002.07
2016-07-12T09:10:21.010Z,1002
2016-07-12T09:11:21.004Z,1002.07
2016-07-12T09:12:21.046Z,1002.04
2016-07-12T09:13:20.989Z,1002
2016-07-12T09:14:20.982Z,1002.01
2016-07-12T09:15:20.973Z,1002.07
2016-07-12T09:16:20.967Z,1002.03
2016-07-12T09:17:20.962Z,1002.05
2016-07-12T09:18:20.955Z,1002.02
2016-07-12T09:19:20.948Z,1002.04
2016-07-12T09:20:20.943Z,1002.04
2016-07-12T09:21:20.938Z,1002
2016-07-12T09:22:20.933Z,1001.94
2016-07-12T09:23:20.927Z,1002.05
2016-07-12T09:24:20.921Z,1002.11
2016-07-12T09:25:20.916Z,1002.04
2016-07-12T09:26:20.910Z,1002.1
2016-07-12T09:27:20.905Z,1002.03
2016-07-12T09:28:20.900Z,1002.01
2016-07-12T09:29:20.896Z,1002.07
2016-07-12T09:30:20.891Z,1002.02
2016-07-12T09:31:20.887Z,1002.05
2016-07-12T09:32:20.881Z,1002
2016-07-12T09:33:20.876Z,1002.07
2016-07-12T09:34:20.873Z,1001.96
2016-07-12T09:35:20.868Z,1002.05
2016-07-12T09:36:20.863Z,1001.97
2016-07-12T09:37:20.858Z,1002.03
2016-07-12T09:38:20.855Z,1002
2016-07-12T09:39:20.849Z,1001.94
2016-07-12T09:40:20.847Z,1002.02
2016-07-12T09:41:20.840Z,1001.92
2016-07-12T09:42:20.837Z,1001.94
2016-07-12T09:43:20.832Z,1001.95
2016-07-12T09:44:20.827Z,1001.99
2016-07-12T09:45:20.824Z,1001.95
2016-07-12T09:46:20.820Z,1002.01
2016-07-12T09:47:20.816Z,1001.94
2016-07-12T09:48:20.812Z,1002.01
2016-07-12T09:49:20.809Z,1001.96
2016-07-12T09:50:20.806Z,1001.92
2016-07-12T09:51:20.803Z,1001.94
2016-07-12T09:52:20.799Z,1001.97
2016-07-12T09:53:20.796Z,1001.99
2016-07-12T09:54:20.792Z,1001.9
2016-07-12T09:55:20.789Z,1001.93
2016-07-12T09:56:20.785Z,1001.92
2016-07-12T09:57:20.782Z,1001.92
2016-07-12T09:58:20.781Z,1001.89
2016-07-12T09:59:20.776Z,1001.95
2016-07-12T10:00:20.775Z,1001.92
2016-07-12T10:01:20.898Z,1001.94
2016-07-12T10:02:20.767Z,1002.07
2016-07-12T10:03:20.764Z,1002.1
2016-07-12T10:04:20.759Z,1002.15
2016-07-12T10:05:20.756Z,1002.08
2016-07-12T10:06:20.756Z,1001.99
2016-07-12T10:07:20.748Z,1002.06
2016-07-12T10:08:20.744Z,1002.03
2016-07-12T10:09:20.741Z,1001.95
2016-07-12T10:10:20.735Z,1002.04
2016-07-12T10:11:20.732Z,1002.07
2016-07-12T10:12:20.726Z,1002.11
2016-07-12T10:13:20.724Z,1002.06
2016-07-12T10:14:20.716Z,1002.06
2016-07-12T10:15:20.712Z,1002.07
2016-07-12T10:16:20.708Z,1002.02
2016-07-12T10:17:20.704Z,1001.99
2016-07-12T10:18:20.699Z,1001.89
2016-07-12T10:19:20.694Z,1002.05
2016-07-12T10:20:20.690Z,1002.04
2016-07-12T10:21:20.684Z,1002.04
2016-07-12T10:22:20.681Z,1002
2016-07-12T10:23:20.675Z,1002.11
2016-07-12T10:24:20.670Z,1002.07
2016-07-12T10:25:20.664Z,1002.02
2016-07-12T10:26:20.659Z,1002.04
2016-07-12T10:27:20.654Z,1002.04
2016-07-12T10:28:20.649Z,1002.04
2016-07-12T10:29:20.646Z,1001.97
2016-07-12T10:30:20.640Z,1001.97
2016-07-12T10:31:20.637Z,1001.93
2016-07-12T10:32:20.632Z,1001.93
2016-07-12T10:33:20.625Z,1002.01
2016-07-12T10:35:02.571Z,1001.96
2016-07-12T10:35:20.615Z,1002.02
2016-07-12T10:36:20.609Z,1001.92
2016-07-12T10:37:20.603Z,1001.87
2016-07-12T10:38:20.598Z,1001.87
2016-07-12T10:39:20.589Z,1001.93
2016-07-12T10:40:20.584Z,1001.9
2016-07-12T10:41:20.576Z,1001.84
2016-07-12T10:42:20.571Z,1002
2016-07-12T10:43:20.565Z,1001.97
2016-07-12T10:44:20.560Z,1001.98
2016-07-12T10:45:20.554Z,1001.98
2016-07-12T10:46:20.547Z,1001.9
2016-07-12T10:47:20.539Z,1001.96
2016-07-12T10:48:20.535Z,1001.92
2016-07-12T10:49:20.529Z,1001.9
2016-07-12T10:50:20.523Z,1001.79
2016-07-12T10:51:20.519Z,1001.82
2016-07-12T10:52:20.514Z,1001.8
2016-07-12T10:53:20.511Z,1001.76
2016-07-12T10:54:20.506Z,1001.76
2016-07-12T10:55:20.503Z,1001.83
2016-07-12T10:56:20.500Z,1001.79
2016-07-12T10:57:20.496Z,1001.8
2016-07-12T10:58:20.493Z,1001.84
2016-07-12T10:59:20.490Z,1001.85
2016-07-12T11:00:20.492Z,1001.85
2016-07-12T11:01:20.483Z,1001.83
2016-07-12T11:02:20.480Z,1001.8
2016-07-12T11:03:20.480Z,1001.87
2016-07-12T11:04:20.478Z,1001.85
2016-07-12T11:05:20.473Z,1001.82
2016-07-12T11:06:20.472Z,1001.86
2016-07-12T11:07:20.470Z,1001.74
2016-07-12T11:08:20.471Z,1001.73
2016-07-12T11:09:20.468Z,1001.67
2016-07-12T11:10:20.467Z,1001.75
2016-07-12T11:11:20.466Z,1001.82
2016-07-12T11:12:20.463Z,1001.73
2016-07-12T11:13:20.463Z,1001.77
2016-07-12T11:14:20.462Z,1001.76
2016-07-12T11:15:20.460Z,1001.72
2016-07-12T11:16:20.458Z,1001.67
2016-07-12T11:17:20.457Z,1001.76
2016-07-12T11:18:20.455Z,1001.77
2016-07-12T11:19:20.454Z,1001.7
2016-07-12T11:20:20.451Z,1001.67
2016-07-12T11:21:20.450Z,1001.68
2016-07-12T11:22:20.447Z,1001.69
2016-07-12T11:23:20.445Z,1001.76
2016-07-12T11:24:20.444Z,1001.69
2016-07-12T11:25:20.445Z,1001.69
2016-07-12T11:26:20.441Z,1001.7
2016-07-12T11:27:20.439Z,1001.77
2016-07-12T11:28:20.437Z,1001.7
2016-07-12T11:29:20.436Z,1001.79
2016-07-12T11:30:20.435Z,1001.78
2016-07-12T11:31:20.435Z,1001.78
2016-07-12T11:32:20.433Z,1001.74
2016-07-12T11:33:20.437Z,1001.8
2016-07-12T11:34:20.431Z,1001.87
2016-07-12T11:35:20.432Z,1001.8
2016-07-12T11:36:20.430Z,1001.77
2016-07-12T11:37:20.429Z,1001.89
2016-07-12T11:38:20.427Z,1001.82
2016-07-12T11:39:20.427Z,1001.81
2016-07-12T11:40:20.430Z,1001.72
2016-07-12T11:41:20.424Z,1001.72
2016-07-12T11:42:20.424Z,1001.73
2016-07-12T11:43:20.422Z,1001.78
2016-07-12T11:44:20.421Z,1001.74
2016-07-12T11:45:20.418Z,1001.71
2016-07-12T11:46:20.417Z,1001.79
2016-07-12T11:47:20.413Z,1001.81
2016-07-12T11:48:20.415Z,1001.78
2016-07-12T11:49:20.408Z,1001.78
2016-07-12T11:50:20.406Z,1001.84
2016-07-12T11:51:20.402Z,1001.72
2016-07-12T11:52:20.397Z,1001.74
2016-07-12T11:53:20.392Z,1001.85
2016-07-12T11:54:20.390Z,1001.78
2016-07-12T11:55:20.387Z,1001.72
2016-07-12T11:56:20.381Z,1001.68
2016-07-12T11:57:20.379Z,1001.71
2016-07-12T11:58:20.375Z,1001.78
2016-07-12T11:59:20.370Z,1001.82
2016-07-12T12:00:20.366Z,1001.71
2016-07-12T12:01:20.360Z,1001.73
2016-07-12T12:02:20.364Z,1001.71
2016-07-12T12:03:20.350Z,1001.72
2016-07-12T12:04:20.343Z,1001.71
2016-07-12T12:05:20.340Z,1001.69
2016-07-12T12:06:20.333Z,1001.64
2016-07-12T12:07:20.327Z,1001.79
2016-07-12T12:08:20.615Z,1001.72
2016-07-12T12:09:20.315Z,1001.73